sensor_id;sensor_type;location;lat;lon;timestamp;P1;durP1;ratioP1;P2;durP2;ratioP2
40284;SDS011;25997;50.214;19.354;2023-09-19T00:01:54;12.00;;;10.82;;
40284;SDS011;25997;50.214;19.354;2023-09-19T00:04:57;11.13;;;10.02;;
40284;SDS011;25997;50.214;19.354;2023-09-19T00:08:00;11.85;;;10.70;;
40284;SDS011;25997;50.214;19.354;2023-09-19T00:11:04;12.40;;;10.43;;
40284;SDS011;25997;50.214;19.354;2023-09-19T00:14:10;13.18;;;11.98;;
40284;SDS011;25997;50.214;19.354;2023-09-19T00:17:14;12.50;;;11.20;;
40284;SDS011;25997;50.214;19.354;2023-09-19T00:20:17;11.57;;;10.38;;
40284;SDS011;25997;50.214;19.354;2023-09-19T00:23:20;13.45;;;11.10;;
40284;SDS011;25997;50.214;19.354;2023-09-19T00:26:22;12.38;;;11.05;;
40284;SDS011;25997;50.214;19.354;2023-09-19T00:29:27;11.75;;;10.65;;
40284;SDS011;25997;50.214;19.354;2023-09-19T00:32:33;12.77;;;11.55;;
40284;SDS011;25997;50.214;19.354;2023-09-19T00:35:38;13.02;;;11.73;;
40284;SDS011;25997;50.214;19.354;2023-09-19T00:38:40;12.80;;;11.68;;
40284;SDS011;25997;50.214;19.354;2023-09-19T00:41:45;11.05;;;9.73;;
40284;SDS011;25997;50.214;19.354;2023-09-19T00:44:49;12.75;;;11.23;;
40284;SDS011;25997;50.214;19.354;2023-09-19T00:47:52;11.55;;;10.43;;
40284;SDS011;25997;50.214;19.354;2023-09-19T00:50:56;13.00;;;11.80;;
40284;SDS011;25997;50.214;19.354;2023-09-19T00:54:01;12.73;;;11.23;;
40284;SDS011;25997;50.214;19.354;2023-09-19T00:57:05;14.18;;;11.23;;
40284;SDS011;25997;50.214;19.354;2023-09-19T01:00:11;12.85;;;11.43;;
40284;SDS011;25997;50.214;19.354;2023-09-19T01:03:16;12.57;;;11.38;;
40284;SDS011;25997;50.214;19.354;2023-09-19T01:06:19;12.32;;;11.20;;
40284;SDS011;25997;50.214;19.354;2023-09-19T01:09:22;12.90;;;11.60;;
40284;SDS011;25997;50.214;19.354;2023-09-19T01:12:29;12.02;;;10.88;;
40284;SDS011;25997;50.214;19.354;2023-09-19T01:15:44;12.45;;;11.18;;
40284;SDS011;25997;50.214;19.354;2023-09-19T01:18:55;13.35;;;12.10;;
40284;SDS011;25997;50.214;19.354;2023-09-19T01:22:09;12.20;;;10.90;;
40284;SDS011;25997;50.214;19.354;2023-09-19T01:29:04;11.40;;;10.32;;
40284;SDS011;25997;50.214;19.354;2023-09-19T01:32:22;13.02;;;11.73;;
40284;SDS011;25997;50.214;19.354;2023-09-19T01:35:26;13.27;;;11.98;;
40284;SDS011;25997;50.214;19.354;2023-09-19T01:38:29;12.13;;;10.90;;
40284;SDS011;25997;50.214;19.354;2023-09-19T01:41:36;13.95;;;10.95;;
40284;SDS011;25997;50.214;19.354;2023-09-19T01:44:49;12.45;;;11.25;;
40284;SDS011;25997;50.214;19.354;2023-09-19T01:47:59;12.60;;;11.05;;
40284;SDS011;25997;50.214;19.354;2023-09-19T01:51:10;12.07;;;10.88;;
40284;SDS011;25997;50.214;19.354;2023-09-19T01:54:16;15.30;;;11.73;;
40284;SDS011;25997;50.214;19.354;2023-09-19T01:57:27;12.68;;;11.52;;
40284;SDS011;25997;50.214;19.354;2023-09-19T02:00:34;13.30;;;11.75;;
40284;SDS011;25997;50.214;19.354;2023-09-19T02:03:41;13.32;;;12.13;;
40284;SDS011;25997;50.214;19.354;2023-09-19T02:06:45;11.95;;;10.85;;
40284;SDS011;25997;50.214;19.354;2023-09-19T02:09:48;14.60;;;11.30;;
40284;SDS011;25997;50.214;19.354;2023-09-19T02:12:50;12.10;;;10.90;;
40284;SDS011;25997;50.214;19.354;2023-09-19T02:15:53;12.85;;;11.23;;
40284;SDS011;25997;50.214;19.354;2023-09-19T02:18:57;13.57;;;12.30;;
40284;SDS011;25997;50.214;19.354;2023-09-19T02:22:00;12.70;;;11.60;;
40284;SDS011;25997;50.214;19.354;2023-09-19T02:25:04;13.65;;;12.43;;
40284;SDS011;25997;50.214;19.354;2023-09-19T02:28:08;12.60;;;11.40;;
40284;SDS011;25997;50.214;19.354;2023-09-19T02:31:10;13.45;;;10.95;;
40284;SDS011;25997;50.214;19.354;2023-09-19T02:34:14;16.95;;;11.65;;
40284;SDS011;25997;50.214;19.354;2023-09-19T02:37:18;13.20;;;11.98;;
40284;SDS011;25997;50.214;19.354;2023-09-19T02:40:20;14.20;;;11.93;;
40284;SDS011;25997;50.214;19.354;2023-09-19T02:43:26;12.88;;;11.57;;
40284;SDS011;25997;50.214;19.354;2023-09-19T02:46:29;12.38;;;11.32;;
40284;SDS011;25997;50.214;19.354;2023-09-19T02:49:32;12.20;;;10.98;;
40284;SDS011;25997;50.214;19.354;2023-09-19T02:52:35;11.60;;;10.38;;
40284;SDS011;25997;50.214;19.354;2023-09-19T02:55:37;12.73;;;11.57;;
40284;SDS011;25997;50.214;19.354;2023-09-19T02:58:40;12.88;;;11.73;;
40284;SDS011;25997;50.214;19.354;2023-09-19T03:01:43;13.05;;;11.77;;
40284;SDS011;25997;50.214;19.354;2023-09-19T03:04:50;15.07;;;12.25;;
40284;SDS011;25997;50.214;19.354;2023-09-19T03:07:53;14.07;;;12.63;;
40284;SDS011;25997;50.214;19.354;2023-09-19T03:10:56;13.27;;;11.93;;
40284;SDS011;25997;50.214;19.354;2023-09-19T03:13:58;14.20;;;12.70;;
40284;SDS011;25997;50.214;19.354;2023-09-19T03:17:01;13.05;;;11.73;;
40284;SDS011;25997;50.214;19.354;2023-09-19T03:20:07;12.25;;;11.15;;
40284;SDS011;25997;50.214;19.354;2023-09-19T03:23:12;16.00;;;14.50;;
40284;SDS011;25997;50.214;19.354;2023-09-19T03:26:15;15.05;;;13.52;;
40284;SDS011;25997;50.214;19.354;2023-09-19T03:29:19;14.13;;;12.73;;
40284;SDS011;25997;50.214;19.354;2023-09-19T03:32:23;14.35;;;12.95;;
40284;SDS011;25997;50.214;19.354;2023-09-19T03:35:27;14.65;;;13.02;;
40284;SDS011;25997;50.214;19.354;2023-09-19T03:38:29;15.65;;;14.10;;
40284;SDS011;25997;50.214;19.354;2023-09-19T03:41:32;14.77;;;13.27;;
40284;SDS011;25997;50.214;19.354;2023-09-19T03:44:37;16.80;;;14.30;;
40284;SDS011;25997;50.214;19.354;2023-09-19T03:47:41;15.52;;;13.93;;
40284;SDS011;25997;50.214;19.354;2023-09-19T03:50:46;17.77;;;16.00;;
40284;SDS011;25997;50.214;19.354;2023-09-19T03:53:49;16.75;;;14.73;;
40284;SDS011;25997;50.214;19.354;2023-09-19T03:56:52;22.23;;;16.35;;
40284;SDS011;25997;50.214;19.354;2023-09-19T03:59:54;15.60;;;14.10;;
40284;SDS011;25997;50.214;19.354;2023-09-19T04:02:57;16.75;;;15.00;;
40284;SDS011;25997;50.214;19.354;2023-09-19T04:06:03;15.95;;;14.30;;
40284;SDS011;25997;50.214;19.354;2023-09-19T04:09:06;15.02;;;13.65;;
40284;SDS011;25997;50.214;19.354;2023-09-19T04:12:09;15.70;;;14.07;;
40284;SDS011;25997;50.214;19.354;2023-09-19T04:15:12;14.95;;;13.55;;
40284;SDS011;25997;50.214;19.354;2023-09-19T04:18:15;15.80;;;13.35;;
40284;SDS011;25997;50.214;19.354;2023-09-19T04:21:19;15.38;;;13.88;;
40284;SDS011;25997;50.214;19.354;2023-09-19T04:24:21;16.40;;;14.32;;
40284;SDS011;25997;50.214;19.354;2023-09-19T04:27:24;15.60;;;14.10;;
40284;SDS011;25997;50.214;19.354;2023-09-19T04:30:26;13.98;;;12.68;;
40284;SDS011;25997;50.214;19.354;2023-09-19T04:33:29;15.18;;;13.77;;
40284;SDS011;25997;50.214;19.354;2023-09-19T04:36:32;16.10;;;14.60;;
40284;SDS011;25997;50.214;19.354;2023-09-19T04:39:37;15.27;;;13.73;;
40284;SDS011;25997;50.214;19.354;2023-09-19T04:42:39;16.08;;;14.35;;
40284;SDS011;25997;50.214;19.354;2023-09-19T04:45:42;15.50;;;13.90;;
40284;SDS011;25997;50.214;19.354;2023-09-19T04:48:44;15.73;;;14.00;;
40284;SDS011;25997;50.214;19.354;2023-09-19T04:51:48;16.10;;;14.40;;
40284;SDS011;25997;50.214;19.354;2023-09-19T04:54:51;17.20;;;14.27;;
40284;SDS011;25997;50.214;19.354;2023-09-19T04:57:54;16.52;;;14.63;;
40284;SDS011;25997;50.214;19.354;2023-09-19T05:00:56;15.23;;;13.93;;
40284;SDS011;25997;50.214;19.354;2023-09-19T05:03:58;16.15;;;14.52;;
40284;SDS011;25997;50.214;19.354;2023-09-19T05:07:03;18.45;;;16.75;;
40284;SDS011;25997;50.214;19.354;2023-09-19T05:10:06;17.92;;;16.13;;
40284;SDS011;25997;50.214;19.354;2023-09-19T05:13:09;18.55;;;16.75;;
40284;SDS011;25997;50.214;19.354;2023-09-19T05:16:12;17.20;;;15.50;;
40284;SDS011;25997;50.214;19.354;2023-09-19T05:19:15;17.65;;;16.02;;
40284;SDS011;25997;50.214;19.354;2023-09-19T05:22:19;17.20;;;15.50;;
40284;SDS011;25997;50.214;19.354;2023-09-19T05:25:21;18.60;;;16.90;;
40284;SDS011;25997;50.214;19.354;2023-09-19T05:28:23;18.65;;;16.85;;
40284;SDS011;25997;50.214;19.354;2023-09-19T05:31:26;19.63;;;17.73;;
40284;SDS011;25997;50.214;19.354;2023-09-19T05:34:28;20.30;;;18.33;;
40284;SDS011;25997;50.214;19.354;2023-09-19T05:37:32;18.08;;;16.27;;
40284;SDS011;25997;50.214;19.354;2023-09-19T05:40:35;18.98;;;17.13;;
40284;SDS011;25997;50.214;19.354;2023-09-19T05:43:39;21.35;;;18.10;;
40284;SDS011;25997;50.214;19.354;2023-09-19T05:46:41;22.67;;;18.70;;
40284;SDS011;25997;50.214;19.354;2023-09-19T05:49:44;21.23;;;19.15;;
40284;SDS011;25997;50.214;19.354;2023-09-19T05:52:52;22.65;;;20.17;;
40284;SDS011;25997;50.214;19.354;2023-09-19T05:55:56;24.20;;;21.77;;
40284;SDS011;25997;50.214;19.354;2023-09-19T05:59:01;20.08;;;18.17;;
40284;SDS011;25997;50.214;19.354;2023-09-19T06:02:05;28.10;;;20.95;;
40284;SDS011;25997;50.214;19.354;2023-09-19T06:05:08;22.17;;;19.42;;
40284;SDS011;25997;50.214;19.354;2023-09-19T06:08:13;21.23;;;19.33;;
40284;SDS011;25997;50.214;19.354;2023-09-19T06:11:15;21.30;;;19.20;;
40284;SDS011;25997;50.214;19.354;2023-09-19T06:14:20;20.33;;;18.35;;
40284;SDS011;25997;50.214;19.354;2023-09-19T06:17:25;19.70;;;17.80;;
40284;SDS011;25997;50.214;19.354;2023-09-19T06:20:29;20.05;;;18.33;;
40284;SDS011;25997;50.214;19.354;2023-09-19T06:23:35;22.90;;;20.77;;
40284;SDS011;25997;50.214;19.354;2023-09-19T06:26:37;20.45;;;18.50;;
40284;SDS011;25997;50.214;19.354;2023-09-19T06:29:40;24.85;;;22.45;;
40284;SDS011;25997;50.214;19.354;2023-09-19T06:32:43;24.25;;;21.88;;
40284;SDS011;25997;50.214;19.354;2023-09-19T06:35:45;32.67;;;27.60;;
40284;SDS011;25997;50.214;19.354;2023-09-19T06:38:49;36.42;;;33.13;;
40284;SDS011;25997;50.214;19.354;2023-09-19T06:41:53;35.75;;;32.42;;
40284;SDS011;25997;50.214;19.354;2023-09-19T06:44:56;34.33;;;30.92;;
40284;SDS011;25997;50.214;19.354;2023-09-19T06:47:58;34.17;;;30.77;;
40284;SDS011;25997;50.214;19.354;2023-09-19T06:51:03;31.52;;;28.20;;
40284;SDS011;25997;50.214;19.354;2023-09-19T06:54:07;28.77;;;25.88;;
40284;SDS011;25997;50.214;19.354;2023-09-19T06:57:10;28.58;;;25.60;;
40284;SDS011;25997;50.214;19.354;2023-09-19T07:00:13;24.98;;;22.40;;
40284;SDS011;25997;50.214;19.354;2023-09-19T07:03:18;23.80;;;21.27;;
40284;SDS011;25997;50.214;19.354;2023-09-19T07:06:22;25.40;;;22.77;;
40284;SDS011;25997;50.214;19.354;2023-09-19T07:09:26;24.13;;;21.83;;
40284;SDS011;25997;50.214;19.354;2023-09-19T07:12:29;26.02;;;23.42;;
40284;SDS011;25997;50.214;19.354;2023-09-19T07:15:32;26.30;;;20.63;;
40284;SDS011;25997;50.214;19.354;2023-09-19T07:18:37;26.55;;;17.88;;
40284;SDS011;25997;50.214;19.354;2023-09-19T07:21:39;22.67;;;20.23;;
40284;SDS011;25997;50.214;19.354;2023-09-19T07:24:44;20.08;;;17.73;;
40284;SDS011;25997;50.214;19.354;2023-09-19T07:27:47;21.10;;;18.95;;
40284;SDS011;25997;50.214;19.354;2023-09-19T07:30:49;19.73;;;17.83;;
40284;SDS011;25997;50.214;19.354;2023-09-19T07:33:53;19.40;;;17.55;;
40284;SDS011;25997;50.214;19.354;2023-09-19T07:36:55;22.90;;;17.15;;
40284;SDS011;25997;50.214;19.354;2023-09-19T07:39:59;18.10;;;16.30;;
40284;SDS011;25997;50.214;19.354;2023-09-19T07:43:02;18.98;;;17.05;;
40284;SDS011;25997;50.214;19.354;2023-09-19T07:46:05;24.20;;;17.80;;
40284;SDS011;25997;50.214;19.354;2023-09-19T07:49:09;20.40;;;18.10;;
40284;SDS011;25997;50.214;19.354;2023-09-19T07:52:11;23.00;;;20.67;;
40284;SDS011;25997;50.214;19.354;2023-09-19T07:55:15;21.92;;;19.58;;
40284;SDS011;25997;50.214;19.354;2023-09-19T07:58:20;24.50;;;21.20;;
40284;SDS011;25997;50.214;19.354;2023-09-19T08:01:23;30.70;;;26.35;;
40284;SDS011;25997;50.214;19.354;2023-09-19T08:04:27;34.13;;;30.60;;
40284;SDS011;25997;50.214;19.354;2023-09-19T08:07:31;37.17;;;33.38;;
40284;SDS011;25997;50.214;19.354;2023-09-19T08:10:35;38.60;;;34.70;;
40284;SDS011;25997;50.214;19.354;2023-09-19T08:13:40;29.92;;;27.00;;
40284;SDS011;25997;50.214;19.354;2023-09-19T08:16:45;22.77;;;20.48;;
40284;SDS011;25997;50.214;19.354;2023-09-19T08:19:48;19.83;;;17.83;;
40284;SDS011;25997;50.214;19.354;2023-09-19T08:22:53;20.13;;;18.13;;
40284;SDS011;25997;50.214;19.354;2023-09-19T08:25:57;18.75;;;14.93;;
40284;SDS011;25997;50.214;19.354;2023-09-19T08:29:02;16.20;;;13.73;;
40284;SDS011;25997;50.214;19.354;2023-09-19T08:32:08;13.85;;;11.23;;
40284;SDS011;25997;50.214;19.354;2023-09-19T08:35:11;15.20;;;11.45;;
40284;SDS011;25997;50.214;19.354;2023-09-19T08:38:14;12.93;;;11.57;;
40284;SDS011;25997;50.214;19.354;2023-09-19T08:41:17;12.13;;;10.65;;
40284;SDS011;25997;50.214;19.354;2023-09-19T08:44:20;14.20;;;11.82;;
40284;SDS011;25997;50.214;19.354;2023-09-19T08:47:25;14.07;;;11.13;;
40284;SDS011;25997;50.214;19.354;2023-09-19T08:50:37;14.48;;;11.23;;
40284;SDS011;25997;50.214;19.354;2023-09-19T08:53:47;11.65;;;9.48;;
40284;SDS011;25997;50.214;19.354;2023-09-19T08:56:55;14.65;;;10.90;;
40284;SDS011;25997;50.214;19.354;2023-09-19T09:00:03;11.52;;;10.20;;
40284;SDS011;25997;50.214;19.354;2023-09-19T09:03:10;18.77;;;14.93;;
40284;SDS011;25997;50.214;19.354;2023-09-19T09:06:15;14.30;;;11.02;;
40284;SDS011;25997;50.214;19.354;2023-09-19T09:09:20;11.85;;;10.18;;
40284;SDS011;25997;50.214;19.354;2023-09-19T09:12:24;16.27;;;10.82;;
40284;SDS011;25997;50.214;19.354;2023-09-19T09:15:27;17.10;;;12.73;;
40284;SDS011;25997;50.214;19.354;2023-09-19T09:18:33;18.42;;;12.07;;
40284;SDS011;25997;50.214;19.354;2023-09-19T09:21:35;13.50;;;10.05;;
40284;SDS011;25997;50.214;19.354;2023-09-19T09:24:50;11.60;;;10.13;;
40284;SDS011;25997;50.214;19.354;2023-09-19T09:28:01;12.13;;;8.88;;
40284;SDS011;25997;50.214;19.354;2023-09-19T09:31:04;12.75;;;10.95;;
40284;SDS011;25997;50.214;19.354;2023-09-19T09:34:10;17.38;;;10.40;;
40284;SDS011;25997;50.214;19.354;2023-09-19T09:37:14;14.13;;;10.57;;
40284;SDS011;25997;50.214;19.354;2023-09-19T09:40:18;14.88;;;13.40;;
40284;SDS011;25997;50.214;19.354;2023-09-19T09:43:38;14.73;;;13.13;;
40284;SDS011;25997;50.214;19.354;2023-09-19T09:46:42;15.95;;;14.38;;
40284;SDS011;25997;50.214;19.354;2023-09-19T09:50:24;19.60;;;17.48;;
40284;SDS011;25997;50.214;19.354;2023-09-19T09:53:36;17.70;;;15.75;;
40284;SDS011;25997;50.214;19.354;2023-09-19T09:56:51;20.10;;;17.20;;
40284;SDS011;25997;50.214;19.354;2023-09-19T10:00:00;18.67;;;15.68;;
40284;SDS011;25997;50.214;19.354;2023-09-19T10:03:19;15.43;;;13.70;;
40284;SDS011;25997;50.214;19.354;2023-09-19T10:06:23;16.73;;;14.57;;
40284;SDS011;25997;50.214;19.354;2023-09-19T10:09:28;14.38;;;12.57;;
40284;SDS011;25997;50.214;19.354;2023-09-19T10:12:38;14.10;;;10.63;;
40284;SDS011;25997;50.214;19.354;2023-09-19T10:15:48;7.70;;;6.75;;
40284;SDS011;25997;50.214;19.354;2023-09-19T10:18:54;7.97;;;6.90;;
40284;SDS011;25997;50.214;19.354;2023-09-19T10:22:00;7.32;;;6.53;;
40284;SDS011;25997;50.214;19.354;2023-09-19T10:25:05;8.07;;;6.65;;
40284;SDS011;25997;50.214;19.354;2023-09-19T10:28:10;7.70;;;6.60;;
40284;SDS011;25997;50.214;19.354;2023-09-19T10:31:15;8.13;;;6.32;;
40284;SDS011;25997;50.214;19.354;2023-09-19T10:34:21;8.55;;;7.72;;
40284;SDS011;25997;50.214;19.354;2023-09-19T10:37:25;11.48;;;7.50;;
40284;SDS011;25997;50.214;19.354;2023-09-19T10:40:29;12.05;;;7.47;;
40284;SDS011;25997;50.214;19.354;2023-09-19T10:43:35;9.40;;;8.18;;
40284;SDS011;25997;50.214;19.354;2023-09-19T10:46:41;8.10;;;7.20;;
40284;SDS011;25997;50.214;19.354;2023-09-19T10:49:46;12.82;;;8.52;;
40284;SDS011;25997;50.214;19.354;2023-09-19T10:52:49;8.23;;;7.40;;
40284;SDS011;25997;50.214;19.354;2023-09-19T10:55:59;10.70;;;8.05;;
40284;SDS011;25997;50.214;19.354;2023-09-19T10:59:07;8.80;;;6.95;;
40284;SDS011;25997;50.214;19.354;2023-09-19T11:02:18;10.95;;;7.40;;
40284;SDS011;25997;50.214;19.354;2023-09-19T11:05:20;8.25;;;7.18;;
40284;SDS011;25997;50.214;19.354;2023-09-19T11:08:23;9.30;;;7.07;;
40284;SDS011;25997;50.214;19.354;2023-09-19T11:11:39;8.15;;;6.68;;
40284;SDS011;25997;50.214;19.354;2023-09-19T11:14:47;9.90;;;6.72;;
40284;SDS011;25997;50.214;19.354;2023-09-19T11:17:50;10.27;;;7.32;;
40284;SDS011;25997;50.214;19.354;2023-09-19T11:20:57;9.32;;;7.25;;
40284;SDS011;25997;50.214;19.354;2023-09-19T11:24:38;9.15;;;7.22;;
40284;SDS011;25997;50.214;19.354;2023-09-19T11:27:49;8.38;;;7.53;;
40284;SDS011;25997;50.214;19.354;2023-09-19T11:31:41;8.93;;;7.50;;
40284;SDS011;25997;50.214;19.354;2023-09-19T11:34:49;8.68;;;7.78;;
40284;SDS011;25997;50.214;19.354;2023-09-19T11:38:01;8.60;;;7.00;;
40284;SDS011;25997;50.214;19.354;2023-09-19T11:44:39;10.25;;;8.35;;
40284;SDS011;25997;50.214;19.354;2023-09-19T11:47:41;11.30;;;8.25;;
40284;SDS011;25997;50.214;19.354;2023-09-19T11:50:48;10.35;;;8.43;;
40284;SDS011;25997;50.214;19.354;2023-09-19T11:53:51;10.55;;;8.77;;
40284;SDS011;25997;50.214;19.354;2023-09-19T11:56:54;11.38;;;8.95;;
40284;SDS011;25997;50.214;19.354;2023-09-19T11:59:57;12.60;;;9.82;;
40284;SDS011;25997;50.214;19.354;2023-09-19T12:03:00;12.10;;;8.90;;
40284;SDS011;25997;50.214;19.354;2023-09-19T12:06:12;11.07;;;8.00;;
40284;SDS011;25997;50.214;19.354;2023-09-19T12:09:15;12.13;;;7.15;;
40284;SDS011;25997;50.214;19.354;2023-09-19T12:12:19;7.95;;;6.18;;
40284;SDS011;25997;50.214;19.354;2023-09-19T12:15:24;5.53;;;4.93;;
40284;SDS011;25997;50.214;19.354;2023-09-19T12:18:29;5.95;;;4.55;;
40284;SDS011;25997;50.214;19.354;2023-09-19T12:21:34;6.40;;;4.53;;
40284;SDS011;25997;50.214;19.354;2023-09-19T12:24:37;8.15;;;5.18;;
40284;SDS011;25997;50.214;19.354;2023-09-19T12:27:45;9.52;;;8.52;;
40284;SDS011;25997;50.214;19.354;2023-09-19T12:30:50;12.68;;;10.82;;
40284;SDS011;25997;50.214;19.354;2023-09-19T12:33:55;13.63;;;12.20;;
40284;SDS011;25997;50.214;19.354;2023-09-19T12:37:07;15.82;;;14.32;;
40284;SDS011;25997;50.214;19.354;2023-09-19T12:40:16;16.02;;;14.45;;
40284;SDS011;25997;50.214;19.354;2023-09-19T12:43:18;17.48;;;15.77;;
40284;SDS011;25997;50.214;19.354;2023-09-19T12:46:22;15.27;;;13.73;;
40284;SDS011;25997;50.214;19.354;2023-09-19T12:49:25;16.40;;;14.90;;
40284;SDS011;25997;50.214;19.354;2023-09-19T12:52:35;14.90;;;13.50;;
40284;SDS011;25997;50.214;19.354;2023-09-19T12:55:38;16.73;;;14.85;;
40284;SDS011;25997;50.214;19.354;2023-09-19T12:58:49;17.10;;;14.70;;
40284;SDS011;25997;50.214;19.354;2023-09-19T13:02:02;15.20;;;13.45;;
40284;SDS011;25997;50.214;19.354;2023-09-19T13:05:07;11.88;;;10.68;;
40284;SDS011;25997;50.214;19.354;2023-09-19T13:08:18;9.10;;;8.23;;
40284;SDS011;25997;50.214;19.354;2023-09-19T13:11:35;9.57;;;8.60;;
40284;SDS011;25997;50.214;19.354;2023-09-19T13:14:41;8.98;;;8.07;;
40284;SDS011;25997;50.214;19.354;2023-09-19T13:17:47;11.38;;;8.65;;
40284;SDS011;25997;50.214;19.354;2023-09-19T13:21:05;12.15;;;10.18;;
40284;SDS011;25997;50.214;19.354;2023-09-19T13:24:22;10.00;;;7.75;;
40284;SDS011;25997;50.214;19.354;2023-09-19T13:27:26;10.82;;;7.70;;
40284;SDS011;25997;50.214;19.354;2023-09-19T13:30:29;12.43;;;9.90;;
40284;SDS011;25997;50.214;19.354;2023-09-19T13:33:33;8.85;;;8.05;;
40284;SDS011;25997;50.214;19.354;2023-09-19T13:36:36;11.30;;;10.20;;
40284;SDS011;25997;50.214;19.354;2023-09-19T13:39:40;12.77;;;11.50;;
40284;SDS011;25997;50.214;19.354;2023-09-19T13:42:48;14.95;;;12.55;;
40284;SDS011;25997;50.214;19.354;2023-09-19T13:45:54;13.98;;;12.07;;
40284;SDS011;25997;50.214;19.354;2023-09-19T13:48:58;12.07;;;10.55;;
40284;SDS011;25997;50.214;19.354;2023-09-19T13:52:00;11.68;;;10.13;;
40284;SDS011;25997;50.214;19.354;2023-09-19T13:55:06;13.52;;;12.15;;
40284;SDS011;25997;50.214;19.354;2023-09-19T13:58:09;14.35;;;12.88;;
40284;SDS011;25997;50.214;19.354;2023-09-19T14:01:12;16.33;;;14.60;;
40284;SDS011;25997;50.214;19.354;2023-09-19T14:04:14;14.60;;;13.20;;
40284;SDS011;25997;50.214;19.354;2023-09-19T14:07:17;14.82;;;10.52;;
40284;SDS011;25997;50.214;19.354;2023-09-19T14:10:22;8.02;;;6.80;;
40284;SDS011;25997;50.214;19.354;2023-09-19T14:13:24;10.00;;;7.97;;
40284;SDS011;25997;50.214;19.354;2023-09-19T14:16:27;10.40;;;8.85;;
40284;SDS011;25997;50.214;19.354;2023-09-19T14:19:31;12.82;;;7.93;;
40284;SDS011;25997;50.214;19.354;2023-09-19T14:22:33;7.95;;;7.15;;
40284;SDS011;25997;50.214;19.354;2023-09-19T14:25:38;8.00;;;6.40;;
40284;SDS011;25997;50.214;19.354;2023-09-19T14:28:41;10.60;;;6.90;;
40284;SDS011;25997;50.214;19.354;2023-09-19T14:31:45;9.15;;;7.07;;
40284;SDS011;25997;50.214;19.354;2023-09-19T14:34:47;8.63;;;7.82;;
40284;SDS011;25997;50.214;19.354;2023-09-19T14:37:50;10.30;;;8.45;;
40284;SDS011;25997;50.214;19.354;2023-09-19T14:41:00;14.27;;;8.82;;
40284;SDS011;25997;50.214;19.354;2023-09-19T14:44:03;12.32;;;8.75;;
40284;SDS011;25997;50.214;19.354;2023-09-19T14:47:05;10.43;;;8.15;;
40284;SDS011;25997;50.214;19.354;2023-09-19T14:50:09;6.07;;;5.47;;
40284;SDS011;25997;50.214;19.354;2023-09-19T14:53:13;7.20;;;4.82;;
40284;SDS011;25997;50.214;19.354;2023-09-19T14:56:16;4.65;;;3.88;;
40284;SDS011;25997;50.214;19.354;2023-09-19T14:59:20;3.45;;;2.72;;
40284;SDS011;25997;50.214;19.354;2023-09-19T15:02:23;5.05;;;2.90;;
40284;SDS011;25997;50.214;19.354;2023-09-19T15:05:25;4.95;;;2.95;;
40284;SDS011;25997;50.214;19.354;2023-09-19T15:08:30;4.15;;;3.13;;
40284;SDS011;25997;50.214;19.354;2023-09-19T15:11:34;4.00;;;3.00;;
40284;SDS011;25997;50.214;19.354;2023-09-19T15:14:36;3.92;;;2.53;;
40284;SDS011;25997;50.214;19.354;2023-09-19T15:17:38;4.63;;;2.60;;
40284;SDS011;25997;50.214;19.354;2023-09-19T15:20:42;3.72;;;2.60;;
40284;SDS011;25997;50.214;19.354;2023-09-19T15:23:45;6.40;;;2.88;;
40284;SDS011;25997;50.214;19.354;2023-09-19T15:26:49;3.55;;;2.63;;
40284;SDS011;25997;50.214;19.354;2023-09-19T15:29:52;3.03;;;2.67;;
40284;SDS011;25997;50.214;19.354;2023-09-19T15:32:54;5.53;;;3.17;;
40284;SDS011;25997;50.214;19.354;2023-09-19T15:36:00;5.40;;;2.92;;
40284;SDS011;25997;50.214;19.354;2023-09-19T15:39:06;8.48;;;3.28;;
40284;SDS011;25997;50.214;19.354;2023-09-19T15:42:13;6.88;;;3.60;;
40284;SDS011;25997;50.214;19.354;2023-09-19T15:45:16;4.53;;;3.20;;
40284;SDS011;25997;50.214;19.354;2023-09-19T15:48:19;4.10;;;3.03;;
40284;SDS011;25997;50.214;19.354;2023-09-19T15:51:22;7.50;;;3.25;;
40284;SDS011;25997;50.214;19.354;2023-09-19T15:54:24;3.90;;;3.15;;
40284;SDS011;25997;50.214;19.354;2023-09-19T15:57:29;4.50;;;3.45;;
40284;SDS011;25997;50.214;19.354;2023-09-19T16:00:32;6.53;;;3.72;;
40284;SDS011;25997;50.214;19.354;2023-09-19T16:03:37;4.05;;;3.65;;
40284;SDS011;25997;50.214;19.354;2023-09-19T16:06:40;6.72;;;4.85;;
40284;SDS011;25997;50.214;19.354;2023-09-19T16:09:43;7.95;;;3.67;;
40284;SDS011;25997;50.214;19.354;2023-09-19T16:12:46;8.43;;;4.15;;
40284;SDS011;25997;50.214;19.354;2023-09-19T16:15:49;6.47;;;5.43;;
40284;SDS011;25997;50.214;19.354;2023-09-19T16:18:52;5.95;;;4.68;;
40284;SDS011;25997;50.214;19.354;2023-09-19T16:21:56;6.05;;;4.80;;
40284;SDS011;25997;50.214;19.354;2023-09-19T16:25:00;6.20;;;5.35;;
40284;SDS011;25997;50.214;19.354;2023-09-19T16:28:05;16.48;;;5.15;;
40284;SDS011;25997;50.214;19.354;2023-09-19T16:31:08;5.57;;;4.57;;
40284;SDS011;25997;50.214;19.354;2023-09-19T16:34:11;10.45;;;6.55;;
40284;SDS011;25997;50.214;19.354;2023-09-19T16:37:14;7.32;;;5.85;;
40284;SDS011;25997;50.214;19.354;2023-09-19T16:40:17;8.27;;;6.43;;
40284;SDS011;25997;50.214;19.354;2023-09-19T16:43:21;10.07;;;6.57;;
40284;SDS011;25997;50.214;19.354;2023-09-19T16:46:24;7.57;;;5.70;;
40284;SDS011;25997;50.214;19.354;2023-09-19T16:49:27;6.75;;;6.13;;
40284;SDS011;25997;50.214;19.354;2023-09-19T16:52:30;12.10;;;6.97;;
40284;SDS011;25997;50.214;19.354;2023-09-19T16:55:33;7.57;;;5.32;;
40284;SDS011;25997;50.214;19.354;2023-09-19T16:58:37;7.57;;;5.78;;
40284;SDS011;25997;50.214;19.354;2023-09-19T17:01:40;9.65;;;6.70;;
40284;SDS011;25997;50.214;19.354;2023-09-19T17:04:43;5.57;;;4.97;;
40284;SDS011;25997;50.214;19.354;2023-09-19T17:07:45;8.27;;;5.63;;
40284;SDS011;25997;50.214;19.354;2023-09-19T17:10:48;6.60;;;5.30;;
40284;SDS011;25997;50.214;19.354;2023-09-19T17:13:52;9.63;;;6.15;;
40284;SDS011;25997;50.214;19.354;2023-09-19T17:16:55;7.70;;;6.95;;
40284;SDS011;25997;50.214;19.354;2023-09-19T17:19:57;8.20;;;6.80;;
40284;SDS011;25997;50.214;19.354;2023-09-19T17:22:59;9.23;;;8.23;;
40284;SDS011;25997;50.214;19.354;2023-09-19T17:26:02;9.65;;;8.65;;
40284;SDS011;25997;50.214;19.354;2023-09-19T17:29:07;8.40;;;7.15;;
40284;SDS011;25997;50.214;19.354;2023-09-19T17:32:11;8.90;;;6.45;;
40284;SDS011;25997;50.214;19.354;2023-09-19T17:35:13;9.63;;;6.85;;
40284;SDS011;25997;50.214;19.354;2023-09-19T17:38:18;9.77;;;7.93;;
40284;SDS011;25997;50.214;19.354;2023-09-19T17:41:20;12.05;;;10.85;;
40284;SDS011;25997;50.214;19.354;2023-09-19T17:44:24;10.68;;;9.57;;
40284;SDS011;25997;50.214;19.354;2023-09-19T17:47:27;9.52;;;8.55;;
40284;SDS011;25997;50.214;19.354;2023-09-19T17:50:29;9.40;;;8.50;;
40284;SDS011;25997;50.214;19.354;2023-09-19T17:53:31;10.95;;;7.93;;
40284;SDS011;25997;50.214;19.354;2023-09-19T17:56:35;9.90;;;6.70;;
40284;SDS011;25997;50.214;19.354;2023-09-19T17:59:41;8.27;;;6.20;;
40284;SDS011;25997;50.214;19.354;2023-09-19T18:02:45;7.75;;;6.55;;